Pagrindinis puslapis
METAR-TAF:

METAR-TAF

Oro uostai :

Anaktuvuk Pass, Aliaska, Jungtinės Amerikos Valstijos

platuma: 68-08-01N, ilguma: 151-44-36W, Aukštis: 641 m

Dabartinis oras

Ataskaita buvo paskelbta 32 minutes, ne 09:56 UTC
Vėjas 7 kt iš Šiaurės Rytų
Temperatūra -23°C
Drėgmė 84%
Slėgis 1013 hPa
Matomumas: 14.5 km
Apsiniaukę ne aukštis 3000 ft
sniegas

METAR: PAKP 260956Z AUTO 05007KT 9SM -SN OVC030 M23/M25 A2991 RMK AO2 SLP222 P0000 T12281250 FZRANO

Laikas: 01:28 (10:28 UTC)


TAF: trūkstamas

Orai ataskaitas ir orų prognozės (METAR, TAF).

turimą stotys yra geltonos ir raudonos taškus žemėlapyje.

Perkelti pele per norėdami pamatyti stoties vardą.

Tada spustelėkite, norėdami matyti oro stebėjimo ir prognozės.

Norėdami pakeisti žemėlapį: spustelėkite ant žalios mygtukų su juodo kryžiaus žemyn,; žalią mygtuką su brūkšneliu, jei norite nutolinti; arba žalių rodyklių gretimoms žemėlapius.


METAR-TAF: